Smyrna Airport
KMQY : now visible

Airfield :











YOU CAN JOIN US ON...

 
LOGIN :

Register | Disclaimer

   EN    FR    IT 

 









Legend :    VFR   Marginal VFR   IFR   Intensive IFR   Very Intensive IFR
Visi :
Ceiling :
>= 8 km
>= 3000ft
5 to 8 km
1000 to 3000 ft
1500m to 5 km
500 to 1000 ft
800 to 1500m
200 to 500 ft
< 800m
< 200 ft
Symbols :   Thunderstorms  Fog  Heavy snow  Heavy precipitations  Wind > 20 kt






- Airport Elevation : 543 ft


KMQY - Smyrna

CURRENT METAR :
  • 080731Z AUTO 00000KT 3SM BR CLR 01/01 A3024 RMK AO2

EXPIRED METARs :
  • 080709Z AUTO 00000KT 1 1/4SM BR CLR 01/01 A3024 RMK AO2 VIS 3/4V3
  • 080706Z AUTO 00000KT 3/4SM BR CLR 01/01 A3024 RMK AO2
  • 080656Z AUTO 00000KT 1/2SM FG VV002 01/01 A3025 RMK AO2 SLP252 T00060006
  • 080643Z AUTO 00000KT 1/2SM FG VV002 01/01 A3025 RMK AO2
  • 080635Z AUTO 00000KT 3/4SM BR VV002 01/00 A3025 RMK AO2
  • 080607Z AUTO 00000KT 3SM BR CLR 01/00 A3025 RMK AO2
  • 080556Z AUTO 00000KT 1 1/4SM BR CLR 01/01 A3025 RMK AO2 VIS 1/2V4 SLP255 T00060006 10061 20006 401330006 58007
  • 080541Z AUTO 00000KT 1SM BR CLR 02/02 A3026 RMK AO2
  • 080520Z AUTO 00000KT 1/2SM FG CLR 02/02 A3026 RMK AO2
  • 080517Z AUTO 00000KT 1SM BR CLR 02/02 A3026 RMK AO2
  • 080507Z AUTO 00000KT 1SM BR CLR 02/02 A3026 RMK AO2
  • 080456Z AUTO 00000KT 1 3/4SM BR CLR 02/02 A3026 RMK AO2 SLP259 T00170017

TAF KMQY
Valid from the 08 at 08:00 until the 09 at 06:00 UTC


080737Z 0808/0906 00000KT 3SM BR SKC
FM081400 18010G18KT P6SM BKN045



MET'MAP, your aeronautical weather chart ! - Copyright ORBIFLY December 2007 - Disclaimer

ORBIFLY MET'MAP TEAM :

Programming & Development : Alexandra Zaïnal
Concept & original design : Baudouin d'Aumeries
Assistance for programming : Marc-Olivier Méhu
Technical & hardware support : Manuel Goepfert

Contact : metmap@orbifly.com




SOURCES & CREDITS :

   NOAA       Earth
Advisory